Arch Cape, Oregon
Current Conditions -  °F | °C
As of 10:55 AM on Wednesday 26 Nov 2014 (Local Time) from KAST Reporting Station
Overcast Overcast  
Wind Chill: 54°   Ceiling: 4100
Heat Index: 54°   Visibility: 10mi
Dew Point: 52°   Wind: 5mph
Humidity: 93%   Direction: 340°NNW
Pressure: 30.12"   Gusts: NA
Location:  45.8°N, 123.96°W
Report Text: KAST 261855Z AUTO 34004KT 10SM OVC041 12/11 A3012 RMK AO2 SLP198 T01220111
Loading
Personal Weather Stations






























Interactive Weather Map New forecast layout! Learn more

10-Day Weather Forecast

Advertisements
Track Severe Weather on mobile